createdAt,value
2022-07-25T00:01:57.881Z,18.38
2022-07-25T00:04:26.385Z,18.36
2022-07-25T00:06:54.127Z,18.33
2022-07-25T00:09:21.989Z,18.32
2022-07-25T00:11:50.357Z,18.32
2022-07-25T00:14:18.103Z,18.32
2022-07-25T00:16:45.866Z,18.31
2022-07-25T00:19:13.823Z,18.30
2022-07-25T00:21:41.537Z,18.29
2022-07-25T00:24:10.371Z,18.28
2022-07-25T00:26:40.434Z,18.29
2022-07-25T00:29:08.509Z,18.28
2022-07-25T00:31:36.554Z,18.28
2022-07-25T00:34:04.640Z,18.26
2022-07-25T00:36:32.803Z,18.22
2022-07-25T00:39:00.555Z,18.17
2022-07-25T00:41:28.263Z,18.13
2022-07-25T00:43:56.087Z,18.07
2022-07-25T00:46:24.156Z,17.96
2022-07-25T00:48:52.479Z,17.86
2022-07-25T00:51:20.848Z,17.82
2022-07-25T00:53:49.185Z,17.81
2022-07-25T00:56:17.091Z,17.83
2022-07-25T00:58:45.650Z,17.84
2022-07-25T01:01:13.907Z,17.86
2022-07-25T01:03:42.045Z,17.88
2022-07-25T01:06:09.833Z,17.88
2022-07-25T01:08:37.540Z,17.86
2022-07-25T01:11:05.861Z,17.84
2022-07-25T01:13:35.242Z,17.82
2022-07-25T01:16:03.256Z,17.81
2022-07-25T01:18:31.337Z,17.79
2022-07-25T01:20:59.219Z,17.76
2022-07-25T01:23:27.801Z,17.73
2022-07-25T01:25:55.572Z,17.71
2022-07-25T01:28:23.277Z,17.68
2022-07-25T01:30:51.099Z,17.65
2022-07-25T01:33:20.584Z,17.63
2022-07-25T01:35:49.273Z,17.62
2022-07-25T01:38:17.330Z,17.61
2022-07-25T01:40:45.270Z,17.59
2022-07-25T01:43:14.208Z,17.57
2022-07-25T01:45:42.131Z,17.56
2022-07-25T01:48:10.206Z,17.53
2022-07-25T01:50:38.488Z,17.52
2022-07-25T01:53:06.205Z,17.51
2022-07-25T01:55:34.219Z,17.46
2022-07-25T01:58:01.965Z,17.40
2022-07-25T02:00:30.648Z,17.35
2022-07-25T02:03:17.005Z,17.30
2022-07-25T02:05:45.371Z,17.27
2022-07-25T02:08:13.102Z,17.25
2022-07-25T02:10:41.599Z,17.22
2022-07-25T02:13:09.251Z,17.21
2022-07-25T02:15:39.355Z,17.18
2022-07-25T02:18:07.154Z,17.15
2022-07-25T02:20:34.797Z,17.11
2022-07-25T02:23:03.673Z,17.05
2022-07-25T02:25:32.072Z,17.00
2022-07-25T02:28:00.093Z,16.95
2022-07-25T02:30:28.158Z,16.93
2022-07-25T02:32:56.260Z,16.90
2022-07-25T02:35:24.773Z,16.86
2022-07-25T02:37:52.931Z,16.84
2022-07-25T02:40:20.695Z,16.83
2022-07-25T02:42:49.199Z,16.82
2022-07-25T02:45:18.505Z,16.83
2022-07-25T02:47:46.221Z,16.81
2022-07-25T02:50:14.775Z,16.85
2022-07-25T02:52:43.667Z,16.86
2022-07-25T02:55:12.184Z,16.86
2022-07-25T02:57:41.198Z,16.86
2022-07-25T03:00:09.832Z,16.87
2022-07-25T03:02:37.845Z,16.86
2022-07-25T03:05:08.286Z,16.85
2022-07-25T03:07:36.412Z,16.85
2022-07-25T03:10:08.937Z,16.84
2022-07-25T03:12:40.915Z,16.86
2022-07-25T03:15:09.813Z,16.89
2022-07-25T03:17:37.891Z,16.94
2022-07-25T03:20:07.052Z,17.01
2022-07-25T03:22:35.224Z,17.07
2022-07-25T03:25:04.595Z,17.13
2022-07-25T03:27:32.475Z,17.20
2022-07-25T03:30:00.253Z,17.26
2022-07-25T03:32:28.254Z,17.32
2022-07-25T03:34:56.138Z,17.40
2022-07-25T03:37:23.914Z,17.47
2022-07-25T03:39:51.654Z,17.55
2022-07-25T03:42:24.933Z,17.63
2022-07-25T03:44:54.237Z,17.72
2022-07-25T03:47:21.926Z,17.81
2022-07-25T03:49:51.167Z,17.91
2022-07-25T03:52:19.107Z,18.02
2022-07-25T03:54:46.768Z,18.11
2022-07-25T03:57:14.993Z,18.23
2022-07-25T03:59:42.678Z,18.35
2022-07-25T04:02:11.579Z,18.46
2022-07-25T04:04:39.366Z,18.57
2022-07-25T04:07:07.175Z,18.64
2022-07-25T04:09:35.009Z,18.71
2022-07-25T04:12:03.054Z,18.82
2022-07-25T04:14:30.737Z,18.96
2022-07-25T04:16:58.543Z,19.11
2022-07-25T04:19:26.340Z,19.26
2022-07-25T04:21:56.826Z,19.40
2022-07-25T04:24:24.516Z,19.54
2022-07-25T04:26:52.436Z,19.70
2022-07-25T04:29:20.215Z,19.88
2022-07-25T04:31:48.068Z,20.05
2022-07-25T04:34:15.904Z,20.20
2022-07-25T04:36:43.639Z,20.33
2022-07-25T04:39:11.586Z,20.45
2022-07-25T04:41:39.313Z,20.55
2022-07-25T04:44:08.382Z,20.68
2022-07-25T04:46:36.531Z,20.78
2022-07-25T04:49:04.281Z,20.86
2022-07-25T04:51:32.235Z,21.01
2022-07-25T04:53:59.967Z,21.18
2022-07-25T04:56:27.902Z,21.36
2022-07-25T04:58:56.315Z,21.52
2022-07-25T05:01:24.261Z,21.68
2022-07-25T05:03:52.391Z,21.76
2022-07-25T05:06:20.261Z,21.82
2022-07-25T05:08:48.278Z,21.82
2022-07-25T05:11:16.180Z,21.90
2022-07-25T05:13:44.690Z,21.92
2022-07-25T05:16:12.526Z,21.87
2022-07-25T05:18:40.611Z,21.71
2022-07-25T05:21:11.288Z,21.63
2022-07-25T05:23:39.639Z,21.63
2022-07-25T05:26:07.499Z,21.62
2022-07-25T05:28:35.661Z,21.74
2022-07-25T05:31:03.687Z,21.85
2022-07-25T05:33:32.070Z,21.86
2022-07-25T05:35:59.763Z,22.02
2022-07-25T05:38:27.447Z,22.24
2022-07-25T05:40:55.487Z,22.32
2022-07-25T05:43:23.253Z,22.40
2022-07-25T05:45:51.044Z,22.54
2022-07-25T05:48:19.132Z,22.61
2022-07-25T05:50:46.955Z,22.70
2022-07-25T05:53:15.253Z,22.70
2022-07-25T05:55:43.102Z,22.72
2022-07-25T05:58:10.745Z,22.74
2022-07-25T06:00:39.425Z,22.76
2022-07-25T06:03:07.153Z,22.86
2022-07-25T06:05:34.981Z,22.99
2022-07-25T06:08:02.868Z,23.14
2022-07-25T06:10:30.647Z,23.30
2022-07-25T06:13:00.842Z,23.47
2022-07-25T06:15:28.711Z,23.65
2022-07-25T06:17:57.277Z,23.80
2022-07-25T06:20:25.723Z,23.54
2022-07-25T06:22:54.239Z,23.29
2022-07-25T06:25:22.092Z,23.13
2022-07-25T06:27:50.213Z,23.04
2022-07-25T06:30:20.368Z,23.34
2022-07-25T06:32:49.647Z,23.77
2022-07-25T06:35:17.656Z,24.04
2022-07-25T06:37:46.278Z,23.89
2022-07-25T06:40:14.589Z,23.70
2022-07-25T06:42:43.985Z,23.58
2022-07-25T06:45:13.235Z,23.51
2022-07-25T06:47:42.295Z,23.50
2022-07-25T06:50:13.292Z,23.52
2022-07-25T06:52:41.334Z,23.72
2022-07-25T06:55:10.113Z,23.71
2022-07-25T06:57:38.435Z,23.67
2022-07-25T07:00:09.726Z,23.72
2022-07-25T07:02:52.004Z,23.73
2022-07-25T07:05:20.021Z,23.75
2022-07-25T07:07:48.329Z,23.69
2022-07-25T07:10:17.301Z,23.56
2022-07-25T07:12:45.180Z,23.41
2022-07-25T07:15:14.127Z,23.31
2022-07-25T07:17:42.369Z,23.50
2022-07-25T07:20:11.878Z,24.03
2022-07-25T07:22:49.729Z,24.14
2022-07-25T07:25:19.762Z,24.14
2022-07-25T07:27:47.732Z,24.10
2022-07-25T07:30:17.621Z,24.02
2022-07-25T07:32:47.510Z,24.07
2022-07-25T07:35:16.680Z,24.17
2022-07-25T07:37:45.331Z,24.20
2022-07-25T07:40:17.142Z,24.27
2022-07-25T07:42:47.524Z,24.43
2022-07-25T07:45:22.200Z,24.61
2022-07-25T07:47:52.114Z,24.77
2022-07-25T07:50:25.715Z,24.83
2022-07-25T07:52:55.195Z,24.82
2022-07-25T07:55:42.320Z,24.87
2022-07-25T07:58:12.054Z,24.91
2022-07-25T08:00:39.879Z,24.93
2022-07-25T08:03:09.045Z,25.02
2022-07-25T08:05:39.599Z,25.09
2022-07-25T08:08:10.965Z,25.08
2022-07-25T08:10:43.097Z,25.09
2022-07-25T08:13:14.341Z,25.15
2022-07-25T08:15:43.600Z,25.12
2022-07-25T08:18:17.155Z,25.13
2022-07-25T08:20:47.049Z,25.12
2022-07-25T08:23:15.039Z,25.16
2022-07-25T08:25:43.511Z,25.22
2022-07-25T08:28:11.669Z,25.28
2022-07-25T08:30:40.541Z,25.40
2022-07-25T08:33:13.097Z,25.61
2022-07-25T08:35:45.405Z,25.83
2022-07-25T08:38:14.136Z,26.06
2022-07-25T08:40:41.950Z,26.25
2022-07-25T08:43:14.658Z,26.26
2022-07-25T08:45:54.789Z,26.33
2022-07-25T08:48:24.573Z,26.48
2022-07-25T08:50:54.131Z,26.71
2022-07-25T08:53:38.194Z,26.94
2022-07-25T08:56:12.564Z,27.17
2022-07-25T08:58:43.841Z,27.43
2022-07-25T09:01:13.470Z,27.66
2022-07-25T09:03:43.083Z,27.83
2022-07-25T09:06:21.895Z,27.91
2022-07-25T09:08:57.545Z,27.95
2022-07-25T09:11:33.887Z,27.99
2022-07-25T09:14:14.998Z,27.91
2022-07-25T09:16:45.892Z,28.09
2022-07-25T09:19:14.524Z,29.31
2022-07-25T09:21:46.039Z,31.71
2022-07-25T09:24:16.442Z,34.38
2022-07-25T09:26:53.196Z,36.86
2022-07-25T09:29:27.157Z,38.27
2022-07-25T09:31:56.198Z,39.10
2022-07-25T09:34:38.885Z,40.45
2022-07-25T09:37:18.406Z,42.36
2022-07-25T09:39:52.065Z,43.51
2022-07-25T09:42:28.648Z,45.13
2022-07-25T09:45:03.235Z,47.47
2022-07-25T09:47:32.383Z,49.73
2022-07-25T09:50:01.146Z,51.31
2022-07-25T09:52:28.885Z,53.04
2022-07-25T09:54:57.133Z,54.20
2022-07-25T09:57:25.926Z,55.65
2022-07-25T09:59:56.017Z,55.67
2022-07-25T10:02:26.518Z,56.22
2022-07-25T10:05:05.092Z,56.91
2022-07-25T10:07:37.313Z,57.87
2022-07-25T10:10:06.123Z,57.96
2022-07-25T10:12:34.070Z,58.59
2022-07-25T10:15:11.011Z,58.57
2022-07-25T10:17:41.151Z,59.00
2022-07-25T10:20:10.421Z,59.11
2022-07-25T10:22:57.811Z,59.07
2022-07-25T10:25:26.828Z,59.08
2022-07-25T10:28:04.012Z,59.06
2022-07-25T10:30:37.079Z,59.50
2022-07-25T10:33:17.569Z,60.21
2022-07-25T10:35:45.910Z,61.13
2022-07-25T10:38:13.701Z,60.56
2022-07-25T10:40:47.441Z,60.29
2022-07-25T10:43:19.669Z,59.67
2022-07-25T10:46:00.111Z,59.46
2022-07-25T10:48:32.410Z,59.87
2022-07-25T10:51:11.496Z,60.42
2022-07-25T10:53:43.889Z,60.03
2022-07-25T10:56:15.714Z,59.74
2022-07-25T10:58:55.727Z,58.25
2022-07-25T11:01:26.015Z,57.20
2022-07-25T11:03:57.030Z,57.59
2022-07-25T11:06:38.096Z,56.87
2022-07-25T11:09:18.652Z,56.37
2022-07-25T11:11:49.940Z,56.37
2022-07-25T11:14:40.968Z,56.19
2022-07-25T11:17:23.345Z,54.58
2022-07-25T11:20:02.115Z,52.24
2022-07-25T11:22:31.446Z,50.11
2022-07-25T11:24:59.970Z,47.71
2022-07-25T11:27:30.809Z,46.50
2022-07-25T11:30:16.061Z,45.97
2022-07-25T11:32:45.431Z,45.46
2022-07-25T11:35:14.763Z,44.96
2022-07-25T11:37:48.742Z,43.72
2022-07-25T11:40:18.635Z,42.16
2022-07-25T11:42:48.218Z,40.86
2022-07-25T11:45:43.985Z,39.60
2022-07-25T11:48:14.273Z,38.00
2022-07-25T11:50:43.920Z,36.82
2022-07-25T11:53:15.167Z,36.11
2022-07-25T11:55:44.639Z,35.40
2022-07-25T11:58:13.679Z,35.22
2022-07-25T12:00:44.199Z,35.18
2022-07-25T12:03:20.465Z,35.05
2022-07-25T12:05:49.569Z,34.78
2022-07-25T12:08:19.771Z,34.49
2022-07-25T12:10:49.357Z,33.97
2022-07-25T12:13:27.877Z,33.22
2022-07-25T12:16:00.143Z,32.84
2022-07-25T12:18:28.335Z,32.46
2022-07-25T12:20:56.364Z,32.18
2022-07-25T12:23:24.381Z,32.01
2022-07-25T12:25:51.987Z,31.87
2022-07-25T12:28:19.712Z,31.77
2022-07-25T12:30:52.905Z,31.59
2022-07-25T12:33:24.349Z,31.39
2022-07-25T12:35:52.062Z,31.26
2022-07-25T12:38:20.117Z,31.17
2022-07-25T12:40:48.053Z,31.03
2022-07-25T12:43:16.288Z,30.80
2022-07-25T12:45:44.367Z,30.55
2022-07-25T12:48:14.607Z,30.44
2022-07-25T12:50:43.331Z,30.54
2022-07-25T12:53:13.472Z,30.73
2022-07-25T12:55:41.524Z,30.76
2022-07-25T12:58:10.523Z,30.55
2022-07-25T13:00:38.598Z,30.35
2022-07-25T13:03:06.500Z,30.10
2022-07-25T13:05:34.492Z,29.85
2022-07-25T13:08:05.351Z,29.66
2022-07-25T13:10:33.043Z,29.48
2022-07-25T13:13:00.708Z,29.38
2022-07-25T13:15:30.320Z,29.21
2022-07-25T13:17:58.791Z,28.98
2022-07-25T13:20:27.170Z,28.82
2022-07-25T13:22:55.265Z,28.75
2022-07-25T13:25:23.193Z,28.68
2022-07-25T13:27:50.951Z,28.60
2022-07-25T13:30:18.692Z,28.56
2022-07-25T13:32:46.449Z,28.44
2022-07-25T13:35:17.763Z,28.33
2022-07-25T13:37:48.346Z,28.29
2022-07-25T13:40:16.072Z,28.20
2022-07-25T13:42:43.815Z,28.10
2022-07-25T13:45:11.773Z,28.02
2022-07-25T13:47:39.945Z,27.92
2022-07-25T13:50:08.376Z,27.87
2022-07-25T13:52:37.824Z,27.89
2022-07-25T13:55:06.349Z,27.95
2022-07-25T13:57:34.173Z,27.95
2022-07-25T14:00:02.310Z,27.94
2022-07-25T14:02:32.711Z,27.95
2022-07-25T14:05:03.912Z,27.90
2022-07-25T14:07:32.384Z,27.91
2022-07-25T14:10:01.041Z,27.99
2022-07-25T14:12:28.946Z,28.08
2022-07-25T14:14:56.906Z,28.09
2022-07-25T14:17:30.013Z,28.07
2022-07-25T14:19:58.187Z,28.11
2022-07-25T14:22:26.767Z,28.20
2022-07-25T14:24:54.613Z,28.29
2022-07-25T14:27:24.940Z,28.46
2022-07-25T14:29:53.942Z,28.89
2022-07-25T14:32:21.976Z,29.29
2022-07-25T14:34:49.902Z,29.41
2022-07-25T14:37:18.978Z,29.39
2022-07-25T14:39:47.753Z,29.64
2022-07-25T14:42:16.069Z,30.05
2022-07-25T14:44:44.037Z,30.35
2022-07-25T14:47:12.735Z,30.55
2022-07-25T14:49:41.323Z,30.55
2022-07-25T14:52:11.507Z,30.56
2022-07-25T14:54:40.229Z,30.58
2022-07-25T14:57:09.540Z,30.58
2022-07-25T14:59:37.608Z,30.49
2022-07-25T15:02:05.343Z,30.36
2022-07-25T15:04:33.658Z,30.29
2022-07-25T15:07:01.463Z,30.27
2022-07-25T15:09:29.115Z,30.26
2022-07-25T15:11:56.862Z,30.25
2022-07-25T15:14:24.644Z,30.25
2022-07-25T15:16:52.617Z,30.21
2022-07-25T15:19:20.476Z,30.14
2022-07-25T15:21:48.297Z,30.03
2022-07-25T15:24:16.238Z,29.89
2022-07-25T15:26:44.482Z,29.75
2022-07-25T15:29:15.356Z,29.58
2022-07-25T15:31:43.370Z,29.44
2022-07-25T15:34:11.145Z,29.43
2022-07-25T15:36:39.093Z,29.45
2022-07-25T15:39:07.912Z,29.35
2022-07-25T15:41:36.039Z,29.18
2022-07-25T15:44:04.189Z,28.99
2022-07-25T15:46:32.822Z,28.78
2022-07-25T15:49:01.096Z,28.55
2022-07-25T15:51:28.960Z,28.35
2022-07-25T15:53:56.707Z,28.21
2022-07-25T15:56:25.677Z,28.07
2022-07-25T15:58:53.528Z,27.98
2022-07-25T16:01:21.607Z,27.89
2022-07-25T16:03:49.647Z,27.79
2022-07-25T16:06:20.827Z,27.71
2022-07-25T16:08:50.126Z,27.67
2022-07-25T16:11:24.863Z,27.62
2022-07-25T16:13:53.809Z,27.56
2022-07-25T16:16:25.797Z,27.51
2022-07-25T16:18:53.709Z,27.46
2022-07-25T16:21:21.414Z,27.40
2022-07-25T16:23:49.196Z,27.35
2022-07-25T16:26:17.329Z,27.31
2022-07-25T16:28:45.046Z,27.28
2022-07-25T16:31:12.878Z,27.25
2022-07-25T16:33:41.054Z,27.22
2022-07-25T16:36:08.944Z,27.21
2022-07-25T16:38:36.901Z,27.26
2022-07-25T16:41:04.849Z,27.28
2022-07-25T16:43:32.638Z,27.26
2022-07-25T16:46:02.036Z,27.23
2022-07-25T16:48:31.027Z,27.17
2022-07-25T16:50:59.082Z,27.13
2022-07-25T16:53:27.310Z,27.11
2022-07-25T16:55:55.002Z,27.11
2022-07-25T16:58:22.907Z,27.06
2022-07-25T17:00:51.114Z,26.99
2022-07-25T17:03:18.890Z,26.92
2022-07-25T17:05:47.296Z,26.83
2022-07-25T17:08:15.079Z,26.75
2022-07-25T17:10:42.936Z,26.67
2022-07-25T17:13:10.954Z,26.61
2022-07-25T17:15:39.823Z,26.56
2022-07-25T17:18:07.599Z,26.49
2022-07-25T17:20:35.344Z,26.42
2022-07-25T17:23:03.800Z,26.35
2022-07-25T17:25:32.055Z,26.27
2022-07-25T17:28:00.971Z,26.20
2022-07-25T17:30:28.873Z,26.13
2022-07-25T17:32:58.656Z,26.07
2022-07-25T17:35:26.385Z,26.00
2022-07-25T17:37:54.086Z,25.93
2022-07-25T17:40:21.883Z,25.86
2022-07-25T17:42:49.704Z,25.79
2022-07-25T17:45:17.749Z,25.70
2022-07-25T17:47:46.465Z,25.61
2022-07-25T17:50:14.385Z,25.54
2022-07-25T17:52:42.046Z,25.46
2022-07-25T17:55:11.988Z,25.37
2022-07-25T17:57:42.315Z,25.28
2022-07-25T18:00:12.044Z,25.19
2022-07-25T18:02:41.283Z,25.10
2022-07-25T18:05:09.335Z,25.00
2022-07-25T18:07:40.752Z,24.90
2022-07-25T18:10:08.772Z,24.79
2022-07-25T18:12:36.696Z,24.69
2022-07-25T18:15:05.501Z,24.59
2022-07-25T18:17:33.970Z,24.48
2022-07-25T18:20:02.446Z,24.38
2022-07-25T18:22:30.820Z,24.28
2022-07-25T18:24:58.983Z,24.18
2022-07-25T18:27:27.410Z,24.08
2022-07-25T18:29:55.318Z,23.98
2022-07-25T18:32:22.949Z,23.88
2022-07-25T18:34:50.836Z,23.77
2022-07-25T18:37:19.203Z,23.67
2022-07-25T18:39:46.890Z,23.55
2022-07-25T18:42:14.707Z,23.41
2022-07-25T18:44:42.404Z,23.28
2022-07-25T18:47:10.970Z,23.15
2022-07-25T18:49:38.738Z,23.00
2022-07-25T18:52:06.580Z,22.85
2022-07-25T18:54:34.288Z,22.71
2022-07-25T18:57:03.472Z,22.58
2022-07-25T18:59:31.144Z,22.45
2022-07-25T19:01:58.879Z,22.31
2022-07-25T19:04:26.805Z,22.20
2022-07-25T19:06:55.299Z,22.08
2022-07-25T19:09:23.663Z,21.96
2022-07-25T19:11:52.489Z,21.86
2022-07-25T19:14:23.183Z,21.77
2022-07-25T19:16:50.886Z,21.70
2022-07-25T19:19:18.639Z,21.65
2022-07-25T19:21:46.509Z,21.61
2022-07-25T19:24:14.577Z,21.58
2022-07-25T19:26:42.679Z,21.55
2022-07-25T19:29:10.628Z,21.52
2022-07-25T19:31:38.606Z,21.49
2022-07-25T19:34:07.414Z,21.48
2022-07-25T19:36:35.399Z,21.45
2022-07-25T19:39:03.923Z,21.42
2022-07-25T19:41:32.406Z,21.38
2022-07-25T19:44:00.205Z,21.35
2022-07-25T19:46:31.480Z,21.30
2022-07-25T19:49:00.930Z,21.26
2022-07-25T19:51:28.650Z,21.20
2022-07-25T19:53:56.509Z,21.14
2022-07-25T19:56:24.697Z,21.08
2022-07-25T19:58:52.748Z,21.01
2022-07-25T20:01:20.918Z,20.95
2022-07-25T20:03:48.886Z,20.89
2022-07-25T20:06:16.691Z,20.82
2022-07-25T20:08:44.476Z,20.76
2022-07-25T20:11:13.053Z,20.75
2022-07-25T20:13:40.878Z,20.84
2022-07-25T20:16:08.705Z,20.84
2022-07-25T20:18:36.469Z,20.73
2022-07-25T20:21:05.121Z,20.70
2022-07-25T20:23:32.928Z,20.87
2022-07-25T20:26:02.277Z,21.56
2022-07-25T20:28:30.597Z,22.30
2022-07-25T20:30:58.579Z,22.17
2022-07-25T20:33:28.323Z,21.74
2022-07-25T20:35:56.844Z,21.38
2022-07-25T20:38:28.252Z,21.11
2022-07-25T20:40:56.432Z,20.88
2022-07-25T20:43:25.318Z,20.75
2022-07-25T20:45:55.021Z,20.78
2022-07-25T20:48:23.410Z,21.19
2022-07-25T20:50:51.423Z,21.58
2022-07-25T20:53:19.850Z,21.43
2022-07-25T20:55:47.593Z,21.06
2022-07-25T20:58:15.896Z,20.76
2022-07-25T21:00:44.303Z,20.63
2022-07-25T21:03:12.142Z,20.77
2022-07-25T21:05:42.038Z,21.28
2022-07-25T21:08:11.482Z,21.74
2022-07-25T21:10:39.458Z,21.61
2022-07-25T21:13:07.125Z,21.16
2022-07-25T21:15:35.369Z,20.89
2022-07-25T21:18:03.280Z,20.95
2022-07-25T21:20:31.281Z,21.24
2022-07-25T21:22:59.110Z,21.32
2022-07-25T21:25:27.014Z,20.95
2022-07-25T21:27:54.689Z,20.74
2022-07-25T21:30:23.013Z,21.33
2022-07-25T21:32:50.719Z,22.24
2022-07-25T21:35:18.637Z,22.56
2022-07-25T21:37:46.416Z,22.01
2022-07-25T21:40:14.479Z,21.37
2022-07-25T21:42:42.261Z,20.89
2022-07-25T21:45:10.790Z,20.65
2022-07-25T21:47:38.759Z,20.64
2022-07-25T21:50:26.051Z,20.57
2022-07-25T21:52:53.871Z,20.57
2022-07-25T21:55:21.922Z,20.74
2022-07-25T21:57:51.327Z,21.01
2022-07-25T22:00:19.834Z,20.68
2022-07-25T22:02:48.401Z,20.57
2022-07-25T22:05:18.888Z,20.99
2022-07-25T22:07:47.511Z,20.83
2022-07-25T22:10:16.813Z,20.60
2022-07-25T22:12:44.831Z,20.67
2022-07-25T22:15:13.744Z,20.92
2022-07-25T22:17:48.567Z,21.33
2022-07-25T22:20:18.980Z,20.89
2022-07-25T22:22:47.818Z,20.79
2022-07-25T22:25:16.509Z,21.36
2022-07-25T22:27:44.589Z,20.99
2022-07-25T22:30:18.269Z,20.51
2022-07-25T22:32:48.421Z,20.52
2022-07-25T22:35:17.241Z,21.33
2022-07-25T22:37:45.828Z,21.20
2022-07-25T22:40:14.224Z,20.66
2022-07-25T22:42:41.987Z,20.58
2022-07-25T22:45:10.406Z,21.70
2022-07-25T22:47:38.544Z,22.13
2022-07-25T22:50:07.739Z,21.50
2022-07-25T22:52:35.415Z,20.88
2022-07-25T22:55:03.860Z,20.41
2022-07-25T22:57:37.230Z,20.43
2022-07-25T23:00:07.902Z,21.55
2022-07-25T23:02:35.921Z,22.28
2022-07-25T23:05:05.385Z,22.20
2022-07-25T23:07:33.436Z,21.47
2022-07-25T23:10:01.695Z,20.81
2022-07-25T23:12:29.417Z,20.34
2022-07-25T23:14:57.292Z,20.32
2022-07-25T23:17:25.027Z,21.11
2022-07-25T23:19:54.569Z,20.94
2022-07-25T23:22:24.198Z,20.61
2022-07-25T23:24:52.325Z,20.64
2022-07-25T23:27:20.319Z,20.47
2022-07-25T23:29:48.499Z,20.75
2022-07-25T23:32:16.217Z,20.42
2022-07-25T23:34:44.796Z,20.27
2022-07-25T23:37:12.529Z,20.90
2022-07-25T23:39:40.235Z,20.59
2022-07-25T23:42:08.073Z,20.35
2022-07-25T23:44:36.592Z,21.04
2022-07-25T23:47:08.060Z,20.90
2022-07-25T23:49:38.814Z,20.25
2022-07-25T23:52:06.531Z,20.03
2022-07-25T23:54:38.370Z,20.91
2022-07-25T23:57:07.407Z,21.21
2022-07-25T23:59:35.919Z,20.60
